createdAt,value
2024-05-09T00:01:38.835Z,4.1
2024-05-09T00:03:39.362Z,3.4
2024-05-09T00:05:40.034Z,3.5
2024-05-09T00:07:40.548Z,3.3
2024-05-09T00:09:41.135Z,3.1
2024-05-09T00:11:41.948Z,3.4
2024-05-09T00:13:42.414Z,3.5
2024-05-09T00:15:42.959Z,3.3
2024-05-09T00:17:43.586Z,3.6
2024-05-09T00:19:44.071Z,4.1
2024-05-09T00:21:44.744Z,4.3
2024-05-09T00:23:45.410Z,6.1
2024-05-09T00:25:46.060Z,6.3
2024-05-09T00:27:46.431Z,6.1
2024-05-09T00:29:47.033Z,5.3
2024-05-09T00:31:47.729Z,4
2024-05-09T00:33:48.337Z,3.4
2024-05-09T00:35:48.785Z,3
2024-05-09T00:37:49.486Z,3.3
2024-05-09T00:39:50.010Z,3.1
2024-05-09T00:41:50.602Z,3.2
2024-05-09T00:43:51.264Z,3.5
2024-05-09T00:45:51.817Z,3.2
2024-05-09T00:47:52.576Z,3.7
2024-05-09T00:49:53.020Z,3.4
2024-05-09T00:51:53.568Z,3.7
2024-05-09T00:53:54.149Z,3.7
2024-05-09T00:55:54.742Z,4
2024-05-09T00:57:55.307Z,3.8
2024-05-09T00:59:55.981Z,4
2024-05-09T01:01:56.566Z,3.5
2024-05-09T01:03:57.239Z,3.5
2024-05-09T01:05:57.807Z,3.4
2024-05-09T01:07:58.304Z,3.2
2024-05-09T01:09:58.915Z,2.9
2024-05-09T01:11:59.617Z,2.8
2024-05-09T01:14:00.158Z,3
2024-05-09T01:16:00.671Z,3.3
2024-05-09T01:18:01.851Z,2.8
2024-05-09T01:20:01.964Z,2.8
2024-05-09T01:22:02.462Z,2.6
2024-05-09T01:24:03.061Z,2.6
2024-05-09T01:26:03.672Z,2.6
2024-05-09T01:28:04.386Z,2.7
2024-05-09T01:30:09.154Z,2.2
2024-05-09T01:32:05.679Z,2.3
2024-05-09T01:34:06.062Z,2.5
2024-05-09T01:36:06.629Z,2.3
2024-05-09T01:38:07.376Z,2.1
2024-05-09T01:40:12.173Z,2.3
2024-05-09T01:42:08.455Z,2.2
2024-05-09T01:44:09.057Z,2.3
2024-05-09T01:46:09.592Z,2.1
2024-05-09T01:48:11.097Z,1.9
2024-05-09T01:50:11.309Z,2.4
2024-05-09T01:52:11.358Z,2.1
2024-05-09T01:54:11.914Z,2.1
2024-05-09T01:56:12.557Z,1.9
2024-05-09T01:58:13.186Z,2
2024-05-09T02:02:14.495Z,2
2024-05-09T02:04:15.078Z,1.9
2024-05-09T02:06:15.606Z,1.6
2024-05-09T02:08:16.329Z,1.7
2024-05-09T02:10:23.391Z,1.7
2024-05-09T02:12:17.506Z,2
2024-05-09T02:14:18.021Z,2.4
2024-05-09T02:16:18.484Z,1.8
2024-05-09T02:18:19.219Z,1.8
2024-05-09T02:20:30.002Z,1.7
2024-05-09T02:22:20.284Z,1.7
2024-05-09T02:24:20.902Z,1.9
2024-05-09T02:26:21.590Z,1.9
2024-05-09T02:28:22.072Z,2.1
2024-05-09T02:30:30.347Z,1.6
2024-05-09T02:32:23.401Z,1.7
2024-05-09T02:34:23.908Z,1.6
2024-05-09T02:36:24.484Z,1.7
2024-05-09T02:38:25.093Z,1.8
2024-05-09T02:40:33.741Z,1.7
2024-05-09T02:42:26.238Z,1.6
2024-05-09T02:44:26.886Z,1.6
2024-05-09T02:46:27.383Z,1.6
2024-05-09T02:48:28.176Z,1.7
2024-05-09T02:50:34.658Z,1.5
2024-05-09T02:52:29.171Z,1.5
2024-05-09T02:54:29.750Z,1.7
2024-05-09T02:56:30.472Z,1.5
2024-05-09T02:58:30.964Z,1.7
2024-05-09T03:00:38.280Z,1.4
2024-05-09T03:02:32.170Z,1.5
2024-05-09T03:04:32.795Z,1.4
2024-05-09T03:06:33.199Z,1.5
2024-05-09T03:08:33.977Z,1.6
2024-05-09T03:12:36.563Z,1.6
2024-05-09T03:14:35.636Z,1.6
2024-05-09T03:16:36.126Z,1.4
2024-05-09T03:18:36.803Z,1.7
2024-05-09T03:20:37.521Z,1.6
2024-05-09T03:22:37.895Z,1.7
2024-05-09T03:24:38.430Z,1.3
2024-05-09T03:26:39.079Z,1.5
2024-05-09T03:28:39.609Z,1.5
2024-05-09T03:30:42.652Z,1.7
2024-05-09T03:32:40.858Z,1.7
2024-05-09T03:34:41.330Z,1.7
2024-05-09T03:36:41.907Z,1.6
2024-05-09T03:38:42.580Z,1.7
2024-05-09T03:40:43.170Z,1.8
2024-05-09T03:42:43.677Z,1.5
2024-05-09T03:44:44.282Z,1.5
2024-05-09T03:46:44.903Z,1.4
2024-05-09T03:48:45.580Z,1.7
2024-05-09T03:50:46.201Z,1.7
2024-05-09T03:52:46.621Z,1.8
2024-05-09T03:54:47.219Z,1.6
2024-05-09T03:56:47.743Z,1.5
2024-05-09T03:58:48.495Z,1.5
2024-05-09T04:00:49.205Z,1.6
2024-05-09T04:01:55.615Z,1.6
2024-05-09T04:02:49.643Z,1.6
2024-05-09T04:04:50.271Z,2
2024-05-09T04:06:50.699Z,1.4
2024-05-09T04:08:51.317Z,1.9
2024-05-09T04:10:51.921Z,1.6
2024-05-09T04:12:52.460Z,1.4
2024-05-09T04:14:53.114Z,1.5
2024-05-09T04:16:53.670Z,1.4
2024-05-09T04:18:54.399Z,1.2
2024-05-09T04:20:54.957Z,1.4
2024-05-09T04:22:55.483Z,1.4
2024-05-09T04:24:56.034Z,1.6
2024-05-09T04:26:56.612Z,1.4
2024-05-09T04:28:57.240Z,1.3
2024-05-09T04:30:57.836Z,1.2
2024-05-09T04:32:58.661Z,1.7
2024-05-09T04:34:59.014Z,1.6
2024-05-09T04:36:59.640Z,1.6
2024-05-09T04:39:00.167Z,1.5
2024-05-09T04:41:00.820Z,1.2
2024-05-09T04:43:01.452Z,1.6
2024-05-09T04:45:01.946Z,1.6
2024-05-09T04:47:02.595Z,1.6
2024-05-09T04:49:03.232Z,1.3
2024-05-09T04:51:03.872Z,1.5
2024-05-09T04:53:04.832Z,1.9
2024-05-09T04:55:04.965Z,1.4
2024-05-09T04:57:05.622Z,1.5
2024-05-09T04:59:06.242Z,1.2
2024-05-09T05:01:06.791Z,1.4
2024-05-09T05:03:08.527Z,1.5
2024-05-09T05:05:08.105Z,1.6
2024-05-09T05:07:08.652Z,1.9
2024-05-09T05:09:09.181Z,2.3
2024-05-09T05:11:09.858Z,1.5
2024-05-09T05:13:10.411Z,1.3
2024-05-09T05:15:11.041Z,1.3
2024-05-09T05:17:11.654Z,1.4
2024-05-09T05:19:15.100Z,1.6
2024-05-09T05:21:12.870Z,1.4
2024-05-09T05:23:13.699Z,1.4
2024-05-09T05:25:13.987Z,1.3
2024-05-09T05:27:14.601Z,1.3
2024-05-09T05:29:16.474Z,1.5
2024-05-09T05:31:15.834Z,1.3
2024-05-09T05:33:16.579Z,1.4
2024-05-09T05:35:16.919Z,1.7
2024-05-09T05:37:17.581Z,1.3
2024-05-09T05:39:18.173Z,1.6
2024-05-09T05:41:18.754Z,1.5
2024-05-09T05:43:19.383Z,1.3
2024-05-09T05:45:19.954Z,1.5
2024-05-09T05:47:20.720Z,1.2
2024-05-09T05:49:21.318Z,1.3
2024-05-09T05:51:21.758Z,1.6
2024-05-09T05:53:22.426Z,1.3
2024-05-09T05:55:22.913Z,1.4
2024-05-09T05:57:23.512Z,2.2
2024-05-09T05:59:24.231Z,1.9
2024-05-09T06:01:24.773Z,1.5
2024-05-09T06:03:25.434Z,1.3
2024-05-09T06:05:27.676Z,1.1
2024-05-09T06:07:26.557Z,1.3
2024-05-09T06:09:27.152Z,1.6
2024-05-09T06:11:27.801Z,1.4
2024-05-09T06:13:28.390Z,1.4
2024-05-09T06:15:28.983Z,1.5
2024-05-09T06:17:29.741Z,1.3
2024-05-09T06:19:30.471Z,1.3
2024-05-09T06:21:30.838Z,1.2
2024-05-09T06:23:31.541Z,1.9
2024-05-09T06:25:32.170Z,1.3
2024-05-09T06:27:32.619Z,1.1
2024-05-09T06:29:33.326Z,1.4
2024-05-09T06:31:33.817Z,1.5
2024-05-09T06:33:34.752Z,1.6
2024-05-09T06:35:35.110Z,1.3
2024-05-09T06:37:35.568Z,1.8
2024-05-09T06:39:36.221Z,1.4
2024-05-09T06:41:37.144Z,1.7
2024-05-09T06:43:37.355Z,1.2
2024-05-09T06:45:37.978Z,1.6
2024-05-09T06:47:38.761Z,1.3
2024-05-09T06:49:39.121Z,1.3
2024-05-09T06:51:39.793Z,1.4
2024-05-09T06:53:40.562Z,1.7
2024-05-09T06:55:40.914Z,1.2
2024-05-09T06:57:43.059Z,1.4
2024-05-09T06:59:42.112Z,1.3
2024-05-09T07:01:42.676Z,1.2
2024-05-09T07:03:43.363Z,1.9
2024-05-09T07:05:43.935Z,1.4
2024-05-09T07:07:44.491Z,1.6
2024-05-09T07:09:45.040Z,1.3
2024-05-09T07:11:45.706Z,1.5
2024-05-09T07:13:46.274Z,1.3
2024-05-09T07:15:46.782Z,1.3
2024-05-09T07:17:47.652Z,1.6
2024-05-09T07:19:48.049Z,2.2
2024-05-09T07:21:48.562Z,1.2
2024-05-09T07:23:49.418Z,1.2
2024-05-09T07:25:49.797Z,1.5
2024-05-09T07:27:50.328Z,1.3
2024-05-09T07:29:50.958Z,1.2
2024-05-09T07:31:51.547Z,1.6
2024-05-09T07:33:52.435Z,1.7
2024-05-09T07:35:53.064Z,1.4
2024-05-09T07:37:53.371Z,1.5
2024-05-09T07:39:53.897Z,1.3
2024-05-09T07:41:54.454Z,1.1
2024-05-09T07:43:55.179Z,1.3
2024-05-09T07:45:58.211Z,1.2
2024-05-09T07:49:44.187Z,1.7
2024-05-09T07:53:21.897Z,1.3
2024-05-09T07:54:00.663Z,1.2
2024-05-09T07:55:58.693Z,1.4
2024-05-09T07:57:59.178Z,1.2
2024-05-09T07:59:59.684Z,1.2
2024-05-09T08:02:00.597Z,1.1
2024-05-09T08:04:00.979Z,1.1
2024-05-09T08:06:01.582Z,1.3
2024-05-09T08:08:02.017Z,1.1
2024-05-09T08:10:02.798Z,1.2
2024-05-09T08:12:03.234Z,1.2
2024-05-09T08:14:03.817Z,1.3
2024-05-09T08:16:04.492Z,1.3
2024-05-09T08:18:05.027Z,1.5
2024-05-09T08:20:05.772Z,1.6
2024-05-09T08:22:06.202Z,1.3
2024-05-09T08:24:06.687Z,1.5
2024-05-09T08:26:07.324Z,1.4
2024-05-09T08:28:07.954Z,1.5
2024-05-09T08:30:15.294Z,1.8
2024-05-09T08:32:09.067Z,1.4
2024-05-09T08:34:09.852Z,1.4
2024-05-09T08:36:10.184Z,1.7
2024-05-09T08:38:10.905Z,1.3
2024-05-09T08:40:19.749Z,1.6
2024-05-09T08:42:11.988Z,2
2024-05-09T08:44:12.516Z,1.6
2024-05-09T08:46:13.280Z,1.8
2024-05-09T08:48:14.947Z,1.4
2024-05-09T08:52:14.938Z,1.2
2024-05-09T08:54:15.427Z,1.5
2024-05-09T08:56:16.036Z,1.8
2024-05-09T08:58:17.028Z,1.5
2024-05-09T09:00:21.782Z,1.7
2024-05-09T09:02:18.077Z,1.2
2024-05-09T09:04:18.581Z,1.2
2024-05-09T09:06:18.976Z,1.6
2024-05-09T09:08:19.687Z,1.2
2024-05-09T09:10:29.034Z,1.6
2024-05-09T09:12:20.684Z,1.4
2024-05-09T09:14:21.302Z,1.4
2024-05-09T09:16:21.918Z,1.2
2024-05-09T09:18:22.521Z,1
2024-05-09T09:20:29.216Z,1
2024-05-09T09:22:23.658Z,2.1
2024-05-09T09:24:24.254Z,1.6
2024-05-09T09:26:24.858Z,1.2
2024-05-09T09:28:25.464Z,1.4
2024-05-09T09:30:34.977Z,1.4
2024-05-09T09:32:26.725Z,1.3
2024-05-09T09:34:27.335Z,1.5
2024-05-09T09:36:27.831Z,1.4
2024-05-09T09:38:28.399Z,1.2
2024-05-09T09:40:32.301Z,1.5
2024-05-09T09:42:29.594Z,1.3
2024-05-09T09:44:30.167Z,1.4
2024-05-09T09:46:30.850Z,1.2
2024-05-09T09:48:31.546Z,1.3
2024-05-09T09:50:34.730Z,1.3
2024-05-09T09:52:32.625Z,1.3
2024-05-09T09:54:33.210Z,1.2
2024-05-09T09:56:33.680Z,1.2
2024-05-09T09:58:34.292Z,1
2024-05-09T10:00:35.028Z,1.8
2024-05-09T10:02:35.576Z,2.9
2024-05-09T10:04:36.166Z,1.1
2024-05-09T10:06:36.729Z,1.3
2024-05-09T10:08:37.251Z,2.1
2024-05-09T10:10:37.945Z,1.2
2024-05-09T10:12:38.676Z,1.3
2024-05-09T10:14:39.016Z,0.7
2024-05-09T10:16:39.621Z,1.2
2024-05-09T10:18:40.718Z,1.2
2024-05-09T10:20:40.850Z,1.1
2024-05-09T10:22:41.449Z,0.8
2024-05-09T10:24:42.037Z,1.1
2024-05-09T10:26:42.629Z,1.5
2024-05-09T10:28:43.205Z,1.4
2024-05-09T10:30:44.864Z,1.2
2024-05-09T10:32:44.455Z,1.4
2024-05-09T10:34:45.025Z,1.1
2024-05-09T10:36:45.591Z,1.2
2024-05-09T10:38:46.150Z,1.1
2024-05-09T10:40:46.705Z,1.3
2024-05-09T10:42:47.353Z,1.2
2024-05-09T10:44:47.912Z,1.1
2024-05-09T10:46:48.535Z,1.2
2024-05-09T10:48:49.621Z,1.4
2024-05-09T10:50:49.627Z,0.9
2024-05-09T10:52:50.275Z,1.1
2024-05-09T10:54:50.900Z,1.1
2024-05-09T10:56:51.432Z,0.8
2024-05-09T10:58:52.019Z,1.1
2024-05-09T11:00:52.747Z,1.4
2024-05-09T11:02:53.281Z,1
2024-05-09T11:04:54.020Z,0.8
2024-05-09T11:06:54.482Z,0.9
2024-05-09T11:08:55.015Z,1.2
2024-05-09T11:10:55.615Z,0.9
2024-05-09T11:12:56.211Z,0.7
2024-05-09T11:14:56.792Z,0.9
2024-05-09T11:16:57.342Z,1.1
2024-05-09T11:18:58.846Z,1.3
2024-05-09T11:20:58.525Z,0.9
2024-05-09T11:22:59.142Z,0.7
2024-05-09T11:24:59.840Z,0.9
2024-05-09T11:27:00.350Z,1.1
2024-05-09T11:29:00.933Z,1.2
2024-05-09T11:31:01.544Z,1.4
2024-05-09T11:33:02.165Z,1.8
2024-05-09T11:35:03.016Z,1.1
2024-05-09T11:37:03.489Z,0.9
2024-05-09T11:39:03.881Z,1
2024-05-09T11:41:04.497Z,0.8
2024-05-09T11:43:05.220Z,0.9
2024-05-09T11:45:05.675Z,1
2024-05-09T11:47:06.343Z,1.1
2024-05-09T11:49:07.336Z,1
2024-05-09T11:51:07.477Z,1
2024-05-09T11:53:08.035Z,0.8
2024-05-09T11:55:08.771Z,1.2
2024-05-09T11:57:09.336Z,1
2024-05-09T11:59:09.872Z,1.3
2024-05-09T12:01:10.616Z,1
2024-05-09T12:03:11.089Z,1.1
2024-05-09T12:05:11.748Z,1.2
2024-05-09T12:07:13.169Z,0.9
2024-05-09T12:09:12.831Z,1
2024-05-09T12:13:14.083Z,1.4
2024-05-09T12:15:14.670Z,0.9
2024-05-09T12:17:15.217Z,1.3
2024-05-09T12:19:15.920Z,0.8
2024-05-09T12:21:16.468Z,0.9
2024-05-09T12:23:16.980Z,1.3
2024-05-09T12:25:17.687Z,0.8
2024-05-09T12:27:18.154Z,1.1
2024-05-09T12:29:18.806Z,0.9
2024-05-09T12:31:19.448Z,0.9
2024-05-09T12:33:20.185Z,1
2024-05-09T12:35:20.563Z,1
2024-05-09T12:37:21.288Z,0.9
2024-05-09T12:39:21.822Z,0.8
2024-05-09T12:41:22.374Z,1.5
2024-05-09T12:43:23.159Z,0.8
2024-05-09T12:45:23.565Z,1
2024-05-09T12:47:24.352Z,0.9
2024-05-09T12:49:24.880Z,1.2
2024-05-09T12:51:25.393Z,1.1
2024-05-09T12:53:25.998Z,0.9
2024-05-09T12:55:28.086Z,0.6
2024-05-09T12:57:27.123Z,1.1
2024-05-09T12:59:27.778Z,0.8
2024-05-09T13:01:28.393Z,0.6
2024-05-09T13:03:29.029Z,0.9
2024-05-09T13:05:30.098Z,0.8
2024-05-09T13:07:30.148Z,0.7
2024-05-09T13:09:30.754Z,0.8
2024-05-09T13:11:31.406Z,0.9
2024-05-09T13:13:31.919Z,0.8
2024-05-09T13:15:32.573Z,1.1
2024-05-09T13:17:33.193Z,1.1
2024-05-09T13:19:33.677Z,0.9
2024-05-09T13:21:34.346Z,0.8
2024-05-09T13:23:34.783Z,1
2024-05-09T13:25:35.658Z,0.5
2024-05-09T13:27:35.983Z,0.9
2024-05-09T13:29:36.515Z,1
2024-05-09T13:31:37.187Z,0.7
2024-05-09T13:33:37.862Z,0.7
2024-05-09T13:35:38.302Z,1
2024-05-09T13:37:38.815Z,1.5
2024-05-09T13:39:39.457Z,1.1
2024-05-09T13:41:39.976Z,1
2024-05-09T13:43:40.624Z,0.7
2024-05-09T13:45:41.300Z,0.8
2024-05-09T13:47:41.901Z,0.7
2024-05-09T13:49:42.378Z,0.7
2024-05-09T13:51:42.944Z,1.3
2024-05-09T13:53:43.541Z,0.9
2024-05-09T13:55:44.024Z,0.7
2024-05-09T13:57:44.719Z,1
2024-05-09T13:59:45.173Z,1
2024-05-09T14:01:45.881Z,1.1
2024-05-09T14:03:46.547Z,0.9
2024-05-09T14:05:47.168Z,1.1
2024-05-09T14:07:47.599Z,1.1
2024-05-09T14:09:48.174Z,0.9
2024-05-09T14:11:48.871Z,1
2024-05-09T14:13:49.322Z,1.1
2024-05-09T14:15:50.089Z,1.5
2024-05-09T14:17:50.584Z,1.2
2024-05-09T14:19:51.112Z,1
2024-05-09T14:21:51.768Z,0.8
2024-05-09T14:23:52.287Z,0.9
2024-05-09T14:25:52.834Z,0.9
2024-05-09T14:27:53.483Z,0.7
2024-05-09T14:29:53.978Z,0.8
2024-05-09T14:31:54.620Z,0.9
2024-05-09T14:33:55.434Z,0.8
2024-05-09T14:35:55.863Z,1
2024-05-09T14:37:56.341Z,0.9
2024-05-09T14:39:57.002Z,0.9
2024-05-09T14:41:57.538Z,0.9
2024-05-09T14:43:58.051Z,0.8
2024-05-09T14:45:58.767Z,0.9
2024-05-09T14:47:59.351Z,1.1
2024-05-09T14:49:59.850Z,0.8
2024-05-09T14:52:00.472Z,0.9
2024-05-09T14:54:01.015Z,0.8
2024-05-09T14:56:01.589Z,1
2024-05-09T14:58:02.217Z,0.7
2024-05-09T15:00:03.772Z,1
2024-05-09T15:02:03.479Z,1
2024-05-09T15:04:04.008Z,0.9
2024-05-09T15:06:04.544Z,1.1
2024-05-09T15:08:05.033Z,1.5
2024-05-09T15:10:09.065Z,0.8
2024-05-09T15:12:06.242Z,1.2
2024-05-09T15:14:06.805Z,1.1
2024-05-09T15:16:07.508Z,0.8
2024-05-09T15:18:08.163Z,1.2
2024-05-09T15:20:09.765Z,1
2024-05-09T15:22:09.362Z,0.9
2024-05-09T15:24:09.831Z,0.9
2024-05-09T15:26:10.397Z,0.7
2024-05-09T15:28:11.045Z,1
2024-05-09T15:30:13.240Z,1.1
2024-05-09T15:32:12.162Z,1.1
2024-05-09T15:34:12.774Z,1
2024-05-09T15:36:13.299Z,1
2024-05-09T15:38:13.964Z,1.1
2024-05-09T15:40:18.883Z,0.8
2024-05-09T15:42:15.051Z,0.9
2024-05-09T15:44:15.619Z,1
2024-05-09T15:46:16.247Z,1
2024-05-09T15:48:16.940Z,1
2024-05-09T15:50:23.979Z,1.1
2024-05-09T15:52:18.111Z,1
2024-05-09T15:54:18.550Z,1
2024-05-09T15:56:19.143Z,1
2024-05-09T15:58:19.809Z,1
2024-05-09T16:00:28.506Z,1.1
2024-05-09T16:04:21.674Z,0.9
2024-05-09T16:06:22.054Z,0.9
2024-05-09T16:08:22.622Z,0.9
2024-05-09T16:10:26.227Z,1.1
2024-05-09T16:12:23.757Z,1.2
2024-05-09T16:14:24.354Z,1
2024-05-09T16:16:25.018Z,0.8
2024-05-09T16:18:25.641Z,1.1
2024-05-09T16:20:34.753Z,1.2
2024-05-09T16:22:26.676Z,1
2024-05-09T16:24:27.227Z,1
2024-05-09T16:26:27.748Z,1
2024-05-09T16:28:28.360Z,1.4
2024-05-09T16:30:34.643Z,1.1
2024-05-09T16:32:29.656Z,1.2
2024-05-09T16:34:30.160Z,0.7
2024-05-09T16:36:30.666Z,0.9
2024-05-09T16:38:31.211Z,0.9
2024-05-09T16:40:38.016Z,0.8
2024-05-09T16:42:32.438Z,0.8
2024-05-09T16:44:35.538Z,1
2024-05-09T16:46:33.526Z,1.1
2024-05-09T16:48:34.230Z,1.2
2024-05-09T16:50:35.881Z,1
2024-05-09T16:52:35.263Z,1.1
2024-05-09T16:54:35.910Z,0.9
2024-05-09T16:56:36.385Z,0.8
2024-05-09T16:58:36.994Z,0.9
2024-05-09T17:00:42.101Z,0.9
2024-05-09T17:02:38.268Z,1.1
2024-05-09T17:04:38.895Z,1.1
2024-05-09T17:06:39.324Z,1.1
2024-05-09T17:08:39.938Z,1
2024-05-09T17:10:40.773Z,1.1
2024-05-09T17:12:41.087Z,0.9
2024-05-09T17:14:41.740Z,1
2024-05-09T17:16:42.342Z,1.1
2024-05-09T17:18:42.954Z,0.9
2024-05-09T17:20:43.507Z,1.1
2024-05-09T17:22:44.124Z,1.2
2024-05-09T17:24:44.726Z,0.9
2024-05-09T17:26:45.273Z,1.1
2024-05-09T17:28:45.902Z,1
2024-05-09T17:30:48.702Z,1.1
2024-05-09T17:32:47.180Z,1.1
2024-05-09T17:34:47.838Z,1
2024-05-09T17:36:48.358Z,1
2024-05-09T17:38:48.891Z,1.6
2024-05-09T17:40:49.519Z,1.5
2024-05-09T17:42:50.115Z,2.1
2024-05-09T17:44:50.724Z,2.1
2024-05-09T17:46:51.277Z,1.9
2024-05-09T17:48:51.969Z,2
2024-05-09T17:50:52.509Z,2.2
2024-05-09T17:52:53.118Z,1.9
2024-05-09T17:54:53.769Z,1.1
2024-05-09T17:56:54.324Z,1.2
2024-05-09T17:58:54.906Z,1.2
2024-05-09T18:00:55.561Z,1.1
2024-05-09T18:02:56.099Z,0.9
2024-05-09T18:04:56.935Z,1.1
2024-05-09T18:06:57.427Z,1.1
2024-05-09T18:08:57.888Z,1.2
2024-05-09T18:10:58.630Z,1.2
2024-05-09T18:12:59.135Z,1.5
2024-05-09T18:14:59.733Z,1.2
2024-05-09T18:17:00.327Z,0.9
2024-05-09T18:19:01.102Z,1.1
2024-05-09T18:21:01.514Z,1.3
2024-05-09T18:23:02.155Z,1.3
2024-05-09T18:25:02.752Z,1
2024-05-09T18:27:03.320Z,0.9
2024-05-09T18:29:03.920Z,1.2
2024-05-09T18:31:04.589Z,1
2024-05-09T18:33:06.566Z,1
2024-05-09T18:35:05.752Z,1
2024-05-09T18:37:06.373Z,1.1
2024-05-09T18:39:06.974Z,1.2
2024-05-09T18:41:07.695Z,1
2024-05-09T18:43:09.170Z,1
2024-05-09T18:45:08.780Z,1.1
2024-05-09T18:47:09.381Z,1
2024-05-09T18:49:10.067Z,1
2024-05-09T18:51:10.551Z,1.6
2024-05-09T18:53:12.495Z,1
2024-05-09T18:55:11.844Z,1.3
2024-05-09T18:57:12.353Z,1.3
2024-05-09T18:59:12.929Z,1.1
2024-05-09T19:01:13.591Z,1.2
2024-05-09T19:03:15.049Z,1.2
2024-05-09T19:05:14.921Z,1
2024-05-09T19:07:15.380Z,1.1
2024-05-09T19:09:15.877Z,1.6
2024-05-09T19:11:16.528Z,1.5
2024-05-09T19:13:17.102Z,1.4
2024-05-09T19:15:17.627Z,1.3
2024-05-09T19:17:18.248Z,1.2
2024-05-09T19:19:19.000Z,1.3
2024-05-09T19:21:19.381Z,1.3
2024-05-09T19:23:20.056Z,1
2024-05-09T19:25:20.612Z,1.1
2024-05-09T19:27:21.061Z,1.2
2024-05-09T19:29:21.656Z,1.1
2024-05-09T19:31:22.312Z,1.2
2024-05-09T19:33:22.916Z,1.1
2024-05-09T19:35:23.454Z,1.3
2024-05-09T19:37:23.975Z,1.3
2024-05-09T19:39:24.583Z,1.6
2024-05-09T19:41:25.315Z,1.4
2024-05-09T19:43:25.870Z,1.2
2024-05-09T19:45:26.364Z,1.5
2024-05-09T19:47:26.994Z,1.4
2024-05-09T19:49:27.635Z,1.4
2024-05-09T19:51:28.093Z,1.5
2024-05-09T19:53:28.611Z,1.7
2024-05-09T19:55:29.203Z,1.6
2024-05-09T19:57:29.756Z,1.5
2024-05-09T19:59:30.362Z,1.8
2024-05-09T20:01:30.991Z,1.8
2024-05-09T20:03:31.809Z,1.4
2024-05-09T20:05:32.343Z,1.6
2024-05-09T20:07:35.098Z,1.3
2024-05-09T20:09:33.327Z,1
2024-05-09T20:11:33.904Z,1.2
2024-05-09T20:13:34.497Z,1.1
2024-05-09T20:15:35.600Z,1.1
2024-05-09T20:17:35.663Z,1.1
2024-05-09T20:19:36.320Z,1.4
2024-05-09T20:21:36.833Z,1
2024-05-09T20:23:37.392Z,1
2024-05-09T20:25:38.032Z,1.3
2024-05-09T20:27:38.618Z,1.2
2024-05-09T20:29:39.167Z,1.6
2024-05-09T20:31:39.800Z,1.5
2024-05-09T20:33:40.409Z,1.6
2024-05-09T20:35:40.943Z,1.4
2024-05-09T20:37:41.635Z,1.6
2024-05-09T20:39:42.182Z,1.8
2024-05-09T20:41:42.728Z,1.7
2024-05-09T20:43:43.377Z,1.4
2024-05-09T20:45:44.006Z,1.4
2024-05-09T20:47:44.639Z,1.3
2024-05-09T20:49:45.144Z,1.3
2024-05-09T20:51:45.714Z,1.4
2024-05-09T20:53:46.297Z,1.3
2024-05-09T20:55:46.885Z,1.2
2024-05-09T20:57:47.532Z,1.5
2024-05-09T20:59:48.074Z,1.4
2024-05-09T21:01:49.506Z,1.6
2024-05-09T21:03:49.440Z,1.4
2024-05-09T21:05:49.983Z,1.3
2024-05-09T21:07:50.420Z,1.7
2024-05-09T21:09:51.050Z,1.7
2024-05-09T21:11:51.678Z,1.6
2024-05-09T21:13:52.180Z,1.7
2024-05-09T21:15:52.948Z,1.6
2024-05-09T21:17:53.515Z,1.5
2024-05-09T21:19:53.957Z,1.6
2024-05-09T21:21:54.611Z,1.4
2024-05-09T21:23:55.178Z,1.3
2024-05-09T21:25:55.736Z,1.6
2024-05-09T21:27:56.418Z,1.4
2024-05-09T21:29:56.926Z,1.5
2024-05-09T21:31:57.546Z,1.5
2024-05-09T21:33:58.362Z,1.7
2024-05-09T21:35:58.763Z,1.5
2024-05-09T21:37:59.365Z,1.3
2024-05-09T21:39:59.993Z,1.7
2024-05-09T21:42:00.560Z,1.4
2024-05-09T21:44:01.195Z,1.4
2024-05-09T21:46:01.827Z,1.4
2024-05-09T21:48:02.427Z,1.6
2024-05-09T21:50:02.989Z,1.2
2024-05-09T21:52:03.783Z,1.1
2024-05-09T21:54:04.188Z,1.1
2024-05-09T21:56:04.772Z,1.4
2024-05-09T21:58:05.655Z,1.2
2024-05-09T22:00:08.550Z,1.3
2024-05-09T22:02:07.083Z,1.2
2024-05-09T22:04:07.388Z,1.4
2024-05-09T22:06:07.931Z,1.2
2024-05-09T22:08:08.476Z,1.2
2024-05-09T22:10:19.521Z,1.2
2024-05-09T22:12:09.631Z,1.2
2024-05-09T22:14:10.209Z,1
2024-05-09T22:16:10.873Z,1.3
2024-05-09T22:18:12.079Z,1.3
2024-05-09T22:20:18.383Z,1.1
2024-05-09T22:22:12.848Z,1.2
2024-05-09T22:24:13.286Z,1.5
2024-05-09T22:26:13.865Z,1.1
2024-05-09T22:28:14.778Z,1
2024-05-09T22:30:21.256Z,1.3
2024-05-09T22:32:15.775Z,1.3
2024-05-09T22:34:16.442Z,1.1
2024-05-09T22:36:16.916Z,1.2
2024-05-09T22:38:17.522Z,1.1
2024-05-09T22:40:28.258Z,1.2
2024-05-09T22:42:18.697Z,1.1
2024-05-09T22:44:19.305Z,1.2
2024-05-09T22:46:20.001Z,1.2
2024-05-09T22:48:20.821Z,1.2
2024-05-09T22:50:26.761Z,1.1
2024-05-09T22:52:21.737Z,1.3
2024-05-09T22:54:22.294Z,1.2
2024-05-09T22:56:22.910Z,1.5
2024-05-09T22:58:24.124Z,1.1
2024-05-09T23:00:31.311Z,1.2
2024-05-09T23:02:24.854Z,1.3
2024-05-09T23:04:25.483Z,1.1
2024-05-09T23:06:25.943Z,1.1
2024-05-09T23:08:26.554Z,1.3
2024-05-09T23:10:32.505Z,1.1
2024-05-09T23:12:27.794Z,1.2
2024-05-09T23:14:28.373Z,1.3
2024-05-09T23:16:29.045Z,1.6
2024-05-09T23:18:29.637Z,1.3
2024-05-09T23:20:37.186Z,1.2
2024-05-09T23:22:30.838Z,1.3
2024-05-09T23:24:31.489Z,1.3
2024-05-09T23:26:31.994Z,1.4
2024-05-09T23:28:32.684Z,1.2
2024-05-09T23:30:38.082Z,1.2
2024-05-09T23:32:33.952Z,1.4
2024-05-09T23:34:34.557Z,1.6
2024-05-09T23:36:35.096Z,1.1
2024-05-09T23:38:35.661Z,1.4
2024-05-09T23:40:39.719Z,1.3
2024-05-09T23:42:36.840Z,1.3
2024-05-09T23:44:37.438Z,1.2
2024-05-09T23:46:38.114Z,1.2
2024-05-09T23:48:38.758Z,1.4
2024-05-09T23:50:40.463Z,1.3
2024-05-09T23:52:39.755Z,1.2
2024-05-09T23:54:40.366Z,1.3
2024-05-09T23:56:40.911Z,1.3
2024-05-09T23:58:41.531Z,1.1
